sensor_id;sensor_type;location;lat;lon;timestamp;temperature;humidity
3756;DHT22;1893;52.526;13.360;2022-08-16T00:02:03;20.10;99.90
3756;DHT22;1893;52.526;13.360;2022-08-16T00:04:29;20.10;99.90
3756;DHT22;1893;52.526;13.360;2022-08-16T00:06:55;20.00;99.90
3756;DHT22;1893;52.526;13.360;2022-08-16T00:09:21;20.00;99.90
3756;DHT22;1893;52.526;13.360;2022-08-16T00:11:47;20.00;99.90
3756;DHT22;1893;52.526;13.360;2022-08-16T00:14:17;19.90;99.90
3756;DHT22;1893;52.526;13.360;2022-08-16T00:16:44;19.90;99.90
3756;DHT22;1893;52.526;13.360;2022-08-16T00:19:12;19.90;99.90
3756;DHT22;1893;52.526;13.360;2022-08-16T00:21:38;19.90;99.90
3756;DHT22;1893;52.526;13.360;2022-08-16T00:24:03;19.90;99.90
3756;DHT22;1893;52.526;13.360;2022-08-16T00:26:29;19.80;99.90
3756;DHT22;1893;52.526;13.360;2022-08-16T00:28:55;19.80;99.90
3756;DHT22;1893;52.526;13.360;2022-08-16T00:31:21;19.80;99.90
3756;DHT22;1893;52.526;13.360;2022-08-16T00:33:46;19.80;99.90
3756;DHT22;1893;52.526;13.360;2022-08-16T00:36:12;19.80;99.90
3756;DHT22;1893;52.526;13.360;2022-08-16T00:38:37;19.90;99.90
3756;DHT22;1893;52.526;13.360;2022-08-16T00:41:03;19.80;99.90
3756;DHT22;1893;52.526;13.360;2022-08-16T00:43:32;19.80;99.90
3756;DHT22;1893;52.526;13.360;2022-08-16T00:48:46;19.80;99.90
3756;DHT22;1893;52.526;13.360;2022-08-16T00:51:14;19.80;99.90
3756;DHT22;1893;52.526;13.360;2022-08-16T00:53:40;19.90;99.90
3756;DHT22;1893;52.526;13.360;2022-08-16T00:56:10;19.80;99.90
3756;DHT22;1893;52.526;13.360;2022-08-16T00:58:42;19.80;99.90
3756;DHT22;1893;52.526;13.360;2022-08-16T01:01:10;19.70;99.90
3756;DHT22;1893;52.526;13.360;2022-08-16T01:03:38;19.60;99.90
3756;DHT22;1893;52.526;13.360;2022-08-16T01:06:04;19.60;99.90
3756;DHT22;1893;52.526;13.360;2022-08-16T01:08:32;19.60;99.90
3756;DHT22;1893;52.526;13.360;2022-08-16T01:10:58;19.70;99.90
3756;DHT22;1893;52.526;13.360;2022-08-16T01:13:26;19.70;99.90
3756;DHT22;1893;52.526;13.360;2022-08-16T01:16:07;19.70;99.90
3756;DHT22;1893;52.526;13.360;2022-08-16T01:18:59;19.60;99.90
3756;DHT22;1893;52.526;13.360;2022-08-16T01:21:39;19.60;99.90
3756;DHT22;1893;52.526;13.360;2022-08-16T01:24:20;19.50;99.90
3756;DHT22;1893;52.526;13.360;2022-08-16T01:26:48;19.60;99.90
3756;DHT22;1893;52.526;13.360;2022-08-16T01:29:20;19.50;99.90
3756;DHT22;1893;52.526;13.360;2022-08-16T01:31:48;19.60;99.90
3756;DHT22;1893;52.526;13.360;2022-08-16T01:34:14;19.50;99.90
3756;DHT22;1893;52.526;13.360;2022-08-16T01:36:41;19.50;99.90
3756;DHT22;1893;52.526;13.360;2022-08-16T01:39:13;19.40;99.90
3756;DHT22;1893;52.526;13.360;2022-08-16T01:41:40;19.50;99.90
3756;DHT22;1893;52.526;13.360;2022-08-16T01:44:06;19.50;99.90
3756;DHT22;1893;52.526;13.360;2022-08-16T01:46:37;19.40;99.90
3756;DHT22;1893;52.526;13.360;2022-08-16T01:49:41;19.40;99.90
3756;DHT22;1893;52.526;13.360;2022-08-16T01:52:04;19.50;99.90
3756;DHT22;1893;52.526;13.360;2022-08-16T01:54:30;19.60;99.90
3756;DHT22;1893;52.526;13.360;2022-08-16T01:56:56;19.50;99.90
3756;DHT22;1893;52.526;13.360;2022-08-16T01:59:22;19.50;99.90
3756;DHT22;1893;52.526;13.360;2022-08-16T02:01:49;19.40;99.90
3756;DHT22;1893;52.526;13.360;2022-08-16T02:04:16;19.30;99.90
3756;DHT22;1893;52.526;13.360;2022-08-16T02:06:42;19.30;99.90
3756;DHT22;1893;52.526;13.360;2022-08-16T02:09:08;19.30;99.90
3756;DHT22;1893;52.526;13.360;2022-08-16T02:11:35;19.30;99.90
3756;DHT22;1893;52.526;13.360;2022-08-16T02:14:01;19.30;99.90
3756;DHT22;1893;52.526;13.360;2022-08-16T02:16:27;19.30;99.90
3756;DHT22;1893;52.526;13.360;2022-08-16T02:18:52;19.30;99.90
3756;DHT22;1893;52.526;13.360;2022-08-16T02:21:19;19.20;99.90
3756;DHT22;1893;52.526;13.360;2022-08-16T02:23:45;19.20;99.90
3756;DHT22;1893;52.526;13.360;2022-08-16T02:26:11;19.20;99.90
3756;DHT22;1893;52.526;13.360;2022-08-16T02:28:37;19.20;99.90
3756;DHT22;1893;52.526;13.360;2022-08-16T02:31:09;19.10;99.90
3756;DHT22;1893;52.526;13.360;2022-08-16T02:33:35;19.20;99.90
3756;DHT22;1893;52.526;13.360;2022-08-16T02:36:00;19.20;99.90
3756;DHT22;1893;52.526;13.360;2022-08-16T02:38:27;19.10;99.90
3756;DHT22;1893;52.526;13.360;2022-08-16T02:40:54;19.10;99.90
3756;DHT22;1893;52.526;13.360;2022-08-16T02:43:25;19.10;99.90
3756;DHT22;1893;52.526;13.360;2022-08-16T02:45:51;19.10;99.90
3756;DHT22;1893;52.526;13.360;2022-08-16T02:48:16;19.10;99.90
3756;DHT22;1893;52.526;13.360;2022-08-16T02:50:42;19.10;99.90
3756;DHT22;1893;52.526;13.360;2022-08-16T02:53:08;19.20;99.90
3756;DHT22;1893;52.526;13.360;2022-08-16T02:55:33;19.20;99.90
3756;DHT22;1893;52.526;13.360;2022-08-16T02:57:59;19.10;99.90
3756;DHT22;1893;52.526;13.360;2022-08-16T03:00:24;19.10;99.90
3756;DHT22;1893;52.526;13.360;2022-08-16T03:02:53;19.00;99.90
3756;DHT22;1893;52.526;13.360;2022-08-16T03:05:19;19.00;99.90
3756;DHT22;1893;52.526;13.360;2022-08-16T03:07:44;19.00;99.90
3756;DHT22;1893;52.526;13.360;2022-08-16T03:10:11;19.10;99.90
3756;DHT22;1893;52.526;13.360;2022-08-16T03:12:37;19.00;99.90
3756;DHT22;1893;52.526;13.360;2022-08-16T03:15:06;19.00;99.90
3756;DHT22;1893;52.526;13.360;2022-08-16T03:17:32;18.90;99.90
3756;DHT22;1893;52.526;13.360;2022-08-16T03:19:57;19.00;99.90
3756;DHT22;1893;52.526;13.360;2022-08-16T03:22:23;18.90;99.90
3756;DHT22;1893;52.526;13.360;2022-08-16T03:24:48;19.00;99.90
3756;DHT22;1893;52.526;13.360;2022-08-16T03:27:14;19.10;99.90
3756;DHT22;1893;52.526;13.360;2022-08-16T03:29:39;18.90;99.90
3756;DHT22;1893;52.526;13.360;2022-08-16T03:32:05;18.90;99.90
3756;DHT22;1893;52.526;13.360;2022-08-16T03:34:31;18.90;99.90
3756;DHT22;1893;52.526;13.360;2022-08-16T03:36:57;18.90;99.90
3756;DHT22;1893;52.526;13.360;2022-08-16T03:39:24;19.00;99.90
3756;DHT22;1893;52.526;13.360;2022-08-16T03:41:50;18.90;99.90
3756;DHT22;1893;52.526;13.360;2022-08-16T03:44:16;18.90;99.90
3756;DHT22;1893;52.526;13.360;2022-08-16T03:46:42;18.90;99.90
3756;DHT22;1893;52.526;13.360;2022-08-16T03:49:08;18.90;99.90
3756;DHT22;1893;52.526;13.360;2022-08-16T03:51:35;18.90;99.90
3756;DHT22;1893;52.526;13.360;2022-08-16T03:54:00;18.90;99.90
3756;DHT22;1893;52.526;13.360;2022-08-16T03:56:26;19.00;99.90
3756;DHT22;1893;52.526;13.360;2022-08-16T03:58:52;19.00;99.90
3756;DHT22;1893;52.526;13.360;2022-08-16T04:01:19;19.00;99.90
3756;DHT22;1893;52.526;13.360;2022-08-16T04:03:45;18.90;99.90
3756;DHT22;1893;52.526;13.360;2022-08-16T04:06:10;18.90;99.90
3756;DHT22;1893;52.526;13.360;2022-08-16T04:08:36;18.80;99.90
3756;DHT22;1893;52.526;13.360;2022-08-16T04:11:01;18.90;99.90
3756;DHT22;1893;52.526;13.360;2022-08-16T04:13:28;18.90;99.90
3756;DHT22;1893;52.526;13.360;2022-08-16T04:15:55;18.90;99.90
3756;DHT22;1893;52.526;13.360;2022-08-16T04:18:26;18.80;99.90
3756;DHT22;1893;52.526;13.360;2022-08-16T04:20:52;18.80;99.90
3756;DHT22;1893;52.526;13.360;2022-08-16T04:23:19;18.90;99.90
3756;DHT22;1893;52.526;13.360;2022-08-16T04:25:45;18.90;99.90
3756;DHT22;1893;52.526;13.360;2022-08-16T04:28:11;18.90;99.90
3756;DHT22;1893;52.526;13.360;2022-08-16T04:30:38;18.80;99.90
3756;DHT22;1893;52.526;13.360;2022-08-16T04:33:05;18.80;99.90
3756;DHT22;1893;52.526;13.360;2022-08-16T04:35:31;18.80;99.90
3756;DHT22;1893;52.526;13.360;2022-08-16T04:37:56;18.90;99.90
3756;DHT22;1893;52.526;13.360;2022-08-16T04:40:23;19.00;99.90
3756;DHT22;1893;52.526;13.360;2022-08-16T04:42:50;19.00;99.90
3756;DHT22;1893;52.526;13.360;2022-08-16T04:45:16;19.00;99.90
3756;DHT22;1893;52.526;13.360;2022-08-16T04:47:42;19.10;99.90
3756;DHT22;1893;52.526;13.360;2022-08-16T04:50:14;19.10;99.90
3756;DHT22;1893;52.526;13.360;2022-08-16T04:52:41;19.10;99.90
3756;DHT22;1893;52.526;13.360;2022-08-16T04:55:11;19.20;99.90
3756;DHT22;1893;52.526;13.360;2022-08-16T04:57:38;19.20;99.90
3756;DHT22;1893;52.526;13.360;2022-08-16T05:00:15;19.30;99.90
3756;DHT22;1893;52.526;13.360;2022-08-16T05:02:41;19.30;99.90
3756;DHT22;1893;52.526;13.360;2022-08-16T05:05:09;19.40;99.90
3756;DHT22;1893;52.526;13.360;2022-08-16T05:07:35;19.40;99.90
3756;DHT22;1893;52.526;13.360;2022-08-16T05:10:02;19.50;99.90
3756;DHT22;1893;52.526;13.360;2022-08-16T05:12:27;19.50;99.90
3756;DHT22;1893;52.526;13.360;2022-08-16T05:14:53;19.60;99.90
3756;DHT22;1893;52.526;13.360;2022-08-16T05:17:18;19.60;99.90
3756;DHT22;1893;52.526;13.360;2022-08-16T05:19:44;19.80;99.90
3756;DHT22;1893;52.526;13.360;2022-08-16T05:22:10;19.80;99.90
3756;DHT22;1893;52.526;13.360;2022-08-16T05:24:35;19.80;99.90
3756;DHT22;1893;52.526;13.360;2022-08-16T05:27:01;19.80;99.90
3756;DHT22;1893;52.526;13.360;2022-08-16T05:29:26;20.00;99.90
3756;DHT22;1893;52.526;13.360;2022-08-16T05:31:52;20.00;99.90
3756;DHT22;1893;52.526;13.360;2022-08-16T05:34:17;20.10;99.90
3756;DHT22;1893;52.526;13.360;2022-08-16T05:36:49;20.10;99.90
3756;DHT22;1893;52.526;13.360;2022-08-16T05:39:15;20.30;99.90
3756;DHT22;1893;52.526;13.360;2022-08-16T05:41:41;20.40;99.90
3756;DHT22;1893;52.526;13.360;2022-08-16T05:44:06;20.40;99.90
3756;DHT22;1893;52.526;13.360;2022-08-16T05:46:32;20.40;99.90
3756;DHT22;1893;52.526;13.360;2022-08-16T05:49:02;20.50;99.90
3756;DHT22;1893;52.526;13.360;2022-08-16T05:51:27;20.50;99.90
3756;DHT22;1893;52.526;13.360;2022-08-16T05:53:53;20.50;99.90
3756;DHT22;1893;52.526;13.360;2022-08-16T05:56:18;20.60;99.90
3756;DHT22;1893;52.526;13.360;2022-08-16T05:58:44;20.70;99.90
3756;DHT22;1893;52.526;13.360;2022-08-16T06:01:10;20.60;99.90
3756;DHT22;1893;52.526;13.360;2022-08-16T06:03:35;20.60;99.90
3756;DHT22;1893;52.526;13.360;2022-08-16T06:06:02;20.70;99.90
3756;DHT22;1893;52.526;13.360;2022-08-16T06:08:27;20.80;99.90
3756;DHT22;1893;52.526;13.360;2022-08-16T06:10:53;20.80;99.90
3756;DHT22;1893;52.526;13.360;2022-08-16T06:13:19;20.90;99.90
3756;DHT22;1893;52.526;13.360;2022-08-16T06:15:45;21.00;99.90
3756;DHT22;1893;52.526;13.360;2022-08-16T06:18:10;21.00;99.90
3756;DHT22;1893;52.526;13.360;2022-08-16T06:20:36;21.10;99.90
3756;DHT22;1893;52.526;13.360;2022-08-16T06:23:02;21.10;99.90
3756;DHT22;1893;52.526;13.360;2022-08-16T06:25:28;21.10;99.90
3756;DHT22;1893;52.526;13.360;2022-08-16T06:27:54;21.30;99.90
3756;DHT22;1893;52.526;13.360;2022-08-16T06:30:19;21.40;99.90
3756;DHT22;1893;52.526;13.360;2022-08-16T06:32:45;21.50;99.90
3756;DHT22;1893;52.526;13.360;2022-08-16T06:35:11;21.50;99.90
3756;DHT22;1893;52.526;13.360;2022-08-16T06:37:38;21.60;99.90
3756;DHT22;1893;52.526;13.360;2022-08-16T06:40:05;21.70;99.90
3756;DHT22;1893;52.526;13.360;2022-08-16T06:42:31;21.80;99.90
3756;DHT22;1893;52.526;13.360;2022-08-16T06:44:57;21.80;99.90
3756;DHT22;1893;52.526;13.360;2022-08-16T06:47:23;22.00;99.90
3756;DHT22;1893;52.526;13.360;2022-08-16T06:49:48;22.10;99.90
3756;DHT22;1893;52.526;13.360;2022-08-16T06:52:14;22.20;99.90
3756;DHT22;1893;52.526;13.360;2022-08-16T06:54:39;22.30;99.90
3756;DHT22;1893;52.526;13.360;2022-08-16T06:57:05;22.30;99.90
3756;DHT22;1893;52.526;13.360;2022-08-16T06:59:32;22.30;99.90
3756;DHT22;1893;52.526;13.360;2022-08-16T07:01:58;22.50;99.90
3756;DHT22;1893;52.526;13.360;2022-08-16T07:04:24;22.60;99.90
3756;DHT22;1893;52.526;13.360;2022-08-16T07:06:50;22.70;99.90
3756;DHT22;1893;52.526;13.360;2022-08-16T07:09:15;22.60;99.90
3756;DHT22;1893;52.526;13.360;2022-08-16T07:11:42;22.70;99.90
3756;DHT22;1893;52.526;13.360;2022-08-16T07:14:08;22.80;99.90
3756;DHT22;1893;52.526;13.360;2022-08-16T07:16:34;23.00;99.90
3756;DHT22;1893;52.526;13.360;2022-08-16T07:19:00;23.10;99.90
3756;DHT22;1893;52.526;13.360;2022-08-16T07:23:54;24.10;99.90
3756;DHT22;1893;52.526;13.360;2022-08-16T07:26:22;24.40;99.90
3756;DHT22;1893;52.526;13.360;2022-08-16T07:28:48;24.80;1.00
3756;DHT22;1893;52.526;13.360;2022-08-16T07:31:14;25.00;16.90
3756;DHT22;1893;52.526;13.360;2022-08-16T07:33:40;24.90;1.00
3756;DHT22;1893;52.526;13.360;2022-08-16T07:36:07;25.00;1.00
3756;DHT22;1893;52.526;13.360;2022-08-16T07:38:34;24.80;1.00
3756;DHT22;1893;52.526;13.360;2022-08-16T07:41:00;24.60;99.90
3756;DHT22;1893;52.526;13.360;2022-08-16T07:43:26;24.60;99.90
3756;DHT22;1893;52.526;13.360;2022-08-16T07:45:52;24.50;46.10
3756;DHT22;1893;52.526;13.360;2022-08-16T07:48:17;24.40;52.20
3756;DHT22;1893;52.526;13.360;2022-08-16T07:50:43;24.50;99.90
3756;DHT22;1893;52.526;13.360;2022-08-16T07:53:10;24.70;92.00
3756;DHT22;1893;52.526;13.360;2022-08-16T07:55:36;24.70;83.90
3756;DHT22;1893;52.526;13.360;2022-08-16T07:58:02;24.70;7.70
3756;DHT22;1893;52.526;13.360;2022-08-16T08:00:28;24.70;1.00
3756;DHT22;1893;52.526;13.360;2022-08-16T08:02:54;24.70;1.00
3756;DHT22;1893;52.526;13.360;2022-08-16T08:05:20;24.80;1.00
3756;DHT22;1893;52.526;13.360;2022-08-16T08:07:47;24.90;19.80
3756;DHT22;1893;52.526;13.360;2022-08-16T08:10:13;25.00;1.00
3756;DHT22;1893;52.526;13.360;2022-08-16T08:12:42;25.10;99.90
3756;DHT22;1893;52.526;13.360;2022-08-16T08:15:09;25.10;1.00
3756;DHT22;1893;52.526;13.360;2022-08-16T08:17:36;24.90;1.00
3756;DHT22;1893;52.526;13.360;2022-08-16T08:20:05;25.00;1.00
3756;DHT22;1893;52.526;13.360;2022-08-16T08:22:32;25.10;1.00
3756;DHT22;1893;52.526;13.360;2022-08-16T08:24:57;25.20;1.00
3756;DHT22;1893;52.526;13.360;2022-08-16T08:27:23;25.40;1.00
3756;DHT22;1893;52.526;13.360;2022-08-16T08:29:48;25.40;1.00
3756;DHT22;1893;52.526;13.360;2022-08-16T08:32:14;25.40;1.00
3756;DHT22;1893;52.526;13.360;2022-08-16T08:34:40;25.40;1.00
3756;DHT22;1893;52.526;13.360;2022-08-16T08:37:06;25.50;1.00
3756;DHT22;1893;52.526;13.360;2022-08-16T08:39:32;25.50;1.00
3756;DHT22;1893;52.526;13.360;2022-08-16T08:41:59;25.50;1.00
3756;DHT22;1893;52.526;13.360;2022-08-16T08:44:26;25.60;1.00
3756;DHT22;1893;52.526;13.360;2022-08-16T08:46:52;25.70;1.00
3756;DHT22;1893;52.526;13.360;2022-08-16T08:49:21;25.90;1.00
3756;DHT22;1893;52.526;13.360;2022-08-16T08:51:47;26.10;99.90
3756;DHT22;1893;52.526;13.360;2022-08-16T08:54:12;26.40;1.00
3756;DHT22;1893;52.526;13.360;2022-08-16T08:56:39;26.40;1.00
3756;DHT22;1893;52.526;13.360;2022-08-16T08:59:06;26.30;1.00
3756;DHT22;1893;52.526;13.360;2022-08-16T09:01:35;26.30;34.20
3756;DHT22;1893;52.526;13.360;2022-08-16T09:04:03;26.30;99.90
3756;DHT22;1893;52.526;13.360;2022-08-16T09:06:30;26.40;1.00
3756;DHT22;1893;52.526;13.360;2022-08-16T09:08:57;26.50;99.90
3756;DHT22;1893;52.526;13.360;2022-08-16T09:11:22;26.80;99.90
3756;DHT22;1893;52.526;13.360;2022-08-16T09:13:50;26.80;30.10
3756;DHT22;1893;52.526;13.360;2022-08-16T09:16:15;26.80;1.00
3756;DHT22;1893;52.526;13.360;2022-08-16T09:18:43;26.70;1.00
3756;DHT22;1893;52.526;13.360;2022-08-16T09:21:09;26.70;1.00
3756;DHT22;1893;52.526;13.360;2022-08-16T09:23:35;27.00;99.90
3756;DHT22;1893;52.526;13.360;2022-08-16T09:26:03;27.10;99.90
3756;DHT22;1893;52.526;13.360;2022-08-16T09:28:29;27.20;99.90
3756;DHT22;1893;52.526;13.360;2022-08-16T09:30:55;27.30;1.00
3756;DHT22;1893;52.526;13.360;2022-08-16T09:33:20;27.50;99.90
3756;DHT22;1893;52.526;13.360;2022-08-16T09:35:47;27.50;1.00
3756;DHT22;1893;52.526;13.360;2022-08-16T09:38:13;27.50;1.00
3756;DHT22;1893;52.526;13.360;2022-08-16T09:40:41;27.70;1.00
3756;DHT22;1893;52.526;13.360;2022-08-16T09:43:13;27.60;1.00
3756;DHT22;1893;52.526;13.360;2022-08-16T09:45:39;27.90;99.90
3756;DHT22;1893;52.526;13.360;2022-08-16T09:48:09;28.00;99.90
3756;DHT22;1893;52.526;13.360;2022-08-16T09:50:37;27.70;99.90
3756;DHT22;1893;52.526;13.360;2022-08-16T09:53:09;27.70;99.90
3756;DHT22;1893;52.526;13.360;2022-08-16T09:55:35;27.60;99.90
3756;DHT22;1893;52.526;13.360;2022-08-16T09:58:01;27.60;1.00
3756;DHT22;1893;52.526;13.360;2022-08-16T10:00:27;27.60;1.00
3756;DHT22;1893;52.526;13.360;2022-08-16T10:02:53;28.10;1.00
3756;DHT22;1893;52.526;13.360;2022-08-16T10:05:19;28.40;1.00
3756;DHT22;1893;52.526;13.360;2022-08-16T10:07:46;28.90;1.00
3756;DHT22;1893;52.526;13.360;2022-08-16T10:10:18;29.00;1.00
3756;DHT22;1893;52.526;13.360;2022-08-16T10:12:44;28.80;1.00
3756;DHT22;1893;52.526;13.360;2022-08-16T10:15:29;28.60;1.00
3756;DHT22;1893;52.526;13.360;2022-08-16T10:17:56;28.70;1.00
3756;DHT22;1893;52.526;13.360;2022-08-16T10:20:21;29.50;1.00
3756;DHT22;1893;52.526;13.360;2022-08-16T10:22:50;30.50;1.00
3756;DHT22;1893;52.526;13.360;2022-08-16T10:25:16;30.40;1.00
3756;DHT22;1893;52.526;13.360;2022-08-16T10:27:43;30.90;1.00
3756;DHT22;1893;52.526;13.360;2022-08-16T10:30:09;31.30;1.00
3756;DHT22;1893;52.526;13.360;2022-08-16T10:32:35;31.50;1.00
3756;DHT22;1893;52.526;13.360;2022-08-16T10:35:00;32.70;1.00
3756;DHT22;1893;52.526;13.360;2022-08-16T10:37:27;33.10;1.00
3756;DHT22;1893;52.526;13.360;2022-08-16T10:39:53;31.80;99.90
3756;DHT22;1893;52.526;13.360;2022-08-16T10:42:19;30.70;99.90
3756;DHT22;1893;52.526;13.360;2022-08-16T10:44:47;29.90;1.00
3756;DHT22;1893;52.526;13.360;2022-08-16T10:47:12;30.30;1.00
3756;DHT22;1893;52.526;13.360;2022-08-16T10:49:38;30.60;1.00
3756;DHT22;1893;52.526;13.360;2022-08-16T10:52:03;30.10;1.00
3756;DHT22;1893;52.526;13.360;2022-08-16T10:54:30;29.40;99.90
3756;DHT22;1893;52.526;13.360;2022-08-16T10:56:57;29.60;1.00
3756;DHT22;1893;52.526;13.360;2022-08-16T10:59:23;30.90;1.00
3756;DHT22;1893;52.526;13.360;2022-08-16T11:01:49;30.90;99.90
3756;DHT22;1893;52.526;13.360;2022-08-16T11:04:16;29.70;99.90
3756;DHT22;1893;52.526;13.360;2022-08-16T11:06:41;29.60;99.90
3756;DHT22;1893;52.526;13.360;2022-08-16T11:09:07;30.80;99.90
3756;DHT22;1893;52.526;13.360;2022-08-16T11:11:32;31.50;99.90
3756;DHT22;1893;52.526;13.360;2022-08-16T11:13:58;32.70;99.90
3756;DHT22;1893;52.526;13.360;2022-08-16T11:16:23;32.00;99.90
3756;DHT22;1893;52.526;13.360;2022-08-16T11:18:49;31.80;99.90
3756;DHT22;1893;52.526;13.360;2022-08-16T11:21:15;32.20;99.90
3756;DHT22;1893;52.526;13.360;2022-08-16T11:23:41;33.10;99.90
3756;DHT22;1893;52.526;13.360;2022-08-16T11:26:07;33.40;99.90
3756;DHT22;1893;52.526;13.360;2022-08-16T11:28:33;33.50;99.90
3756;DHT22;1893;52.526;13.360;2022-08-16T11:31:00;32.50;99.90
3756;DHT22;1893;52.526;13.360;2022-08-16T11:33:26;31.30;99.90
3756;DHT22;1893;52.526;13.360;2022-08-16T11:35:51;30.70;99.90
3756;DHT22;1893;52.526;13.360;2022-08-16T11:38:19;30.70;99.90
3756;DHT22;1893;52.526;13.360;2022-08-16T11:43:19;31.70;99.90
3756;DHT22;1893;52.526;13.360;2022-08-16T11:45:48;31.60;99.90
3756;DHT22;1893;52.526;13.360;2022-08-16T11:48:14;31.40;99.90
3756;DHT22;1893;52.526;13.360;2022-08-16T11:50:42;31.10;99.90
3756;DHT22;1893;52.526;13.360;2022-08-16T11:53:09;30.90;99.90
3756;DHT22;1893;52.526;13.360;2022-08-16T11:55:36;31.10;99.90
3756;DHT22;1893;52.526;13.360;2022-08-16T11:58:02;30.80;99.90
3756;DHT22;1893;52.526;13.360;2022-08-16T12:00:29;31.20;99.90
3756;DHT22;1893;52.526;13.360;2022-08-16T12:02:55;31.00;99.90
3756;DHT22;1893;52.526;13.360;2022-08-16T12:05:22;30.70;99.90
3756;DHT22;1893;52.526;13.360;2022-08-16T12:07:48;30.80;99.90
3756;DHT22;1893;52.526;13.360;2022-08-16T12:10:17;30.30;99.90
3756;DHT22;1893;52.526;13.360;2022-08-16T12:12:44;30.20;99.90
3756;DHT22;1893;52.526;13.360;2022-08-16T12:15:11;29.90;99.90
3756;DHT22;1893;52.526;13.360;2022-08-16T12:17:38;29.70;99.90
3756;DHT22;1893;52.526;13.360;2022-08-16T12:20:09;29.60;99.90
3756;DHT22;1893;52.526;13.360;2022-08-16T12:22:35;29.80;99.90
3756;DHT22;1893;52.526;13.360;2022-08-16T12:25:03;30.40;99.90
3756;DHT22;1893;52.526;13.360;2022-08-16T12:27:29;30.40;99.90
3756;DHT22;1893;52.526;13.360;2022-08-16T12:29:55;30.40;99.90
3756;DHT22;1893;52.526;13.360;2022-08-16T12:32:21;30.20;99.90
3756;DHT22;1893;52.526;13.360;2022-08-16T12:34:47;30.40;99.90
3756;DHT22;1893;52.526;13.360;2022-08-16T12:37:13;30.40;99.90
3756;DHT22;1893;52.526;13.360;2022-08-16T12:39:39;30.40;99.90
3756;DHT22;1893;52.526;13.360;2022-08-16T12:42:05;30.20;99.90
3756;DHT22;1893;52.526;13.360;2022-08-16T12:44:34;29.90;99.90
3756;DHT22;1893;52.526;13.360;2022-08-16T12:47:00;29.70;99.90
3756;DHT22;1893;52.526;13.360;2022-08-16T12:49:44;29.50;99.90
3756;DHT22;1893;52.526;13.360;2022-08-16T12:52:10;29.20;99.90
3756;DHT22;1893;52.526;13.360;2022-08-16T12:54:36;28.90;99.90
3756;DHT22;1893;52.526;13.360;2022-08-16T12:57:07;28.80;99.90
3756;DHT22;1893;52.526;13.360;2022-08-16T12:59:34;28.80;99.90
3756;DHT22;1893;52.526;13.360;2022-08-16T13:02:00;28.90;99.90
3756;DHT22;1893;52.526;13.360;2022-08-16T13:04:27;29.00;99.90
3756;DHT22;1893;52.526;13.360;2022-08-16T13:06:54;29.20;99.90
3756;DHT22;1893;52.526;13.360;2022-08-16T13:09:22;29.40;99.90
3756;DHT22;1893;52.526;13.360;2022-08-16T13:11:58;29.90;99.90
3756;DHT22;1893;52.526;13.360;2022-08-16T13:14:32;30.30;99.90
3756;DHT22;1893;52.526;13.360;2022-08-16T13:17:04;30.60;99.90
3756;DHT22;1893;52.526;13.360;2022-08-16T13:19:30;30.50;99.90
3756;DHT22;1893;52.526;13.360;2022-08-16T13:21:55;30.20;99.90
3756;DHT22;1893;52.526;13.360;2022-08-16T13:24:21;30.10;99.90
3756;DHT22;1893;52.526;13.360;2022-08-16T13:26:47;30.40;99.90
3756;DHT22;1893;52.526;13.360;2022-08-16T13:29:12;30.60;99.90
3756;DHT22;1893;52.526;13.360;2022-08-16T13:31:38;30.80;99.90
3756;DHT22;1893;52.526;13.360;2022-08-16T13:34:03;30.80;99.90
3756;DHT22;1893;52.526;13.360;2022-08-16T13:36:29;30.60;99.90
3756;DHT22;1893;52.526;13.360;2022-08-16T13:38:55;30.30;99.90
3756;DHT22;1893;52.526;13.360;2022-08-16T13:41:21;30.10;99.90
3756;DHT22;1893;52.526;13.360;2022-08-16T13:43:47;30.30;99.90
3756;DHT22;1893;52.526;13.360;2022-08-16T13:46:13;30.30;99.90
3756;DHT22;1893;52.526;13.360;2022-08-16T13:48:38;30.20;99.90
3756;DHT22;1893;52.526;13.360;2022-08-16T13:51:04;30.20;99.90
3756;DHT22;1893;52.526;13.360;2022-08-16T13:53:30;30.00;99.90
3756;DHT22;1893;52.526;13.360;2022-08-16T13:55:56;30.10;99.90
3756;DHT22;1893;52.526;13.360;2022-08-16T13:58:22;30.40;99.90
3756;DHT22;1893;52.526;13.360;2022-08-16T14:00:48;30.50;99.90
3756;DHT22;1893;52.526;13.360;2022-08-16T14:03:15;30.40;99.90
3756;DHT22;1893;52.526;13.360;2022-08-16T14:05:41;30.40;99.90
3756;DHT22;1893;52.526;13.360;2022-08-16T14:08:06;30.40;99.90
3756;DHT22;1893;52.526;13.360;2022-08-16T14:10:32;30.40;99.90
3756;DHT22;1893;52.526;13.360;2022-08-16T14:12:58;30.60;99.90
3756;DHT22;1893;52.526;13.360;2022-08-16T14:15:23;30.60;99.90
3756;DHT22;1893;52.526;13.360;2022-08-16T14:17:49;30.40;99.90
3756;DHT22;1893;52.526;13.360;2022-08-16T14:20:15;30.50;99.90
3756;DHT22;1893;52.526;13.360;2022-08-16T14:22:42;30.40;99.90
3756;DHT22;1893;52.526;13.360;2022-08-16T14:25:15;30.20;99.90
3756;DHT22;1893;52.526;13.360;2022-08-16T14:27:41;29.80;99.90
3756;DHT22;1893;52.526;13.360;2022-08-16T14:30:08;29.80;99.90
3756;DHT22;1893;52.526;13.360;2022-08-16T14:32:35;29.60;99.90
3756;DHT22;1893;52.526;13.360;2022-08-16T14:35:07;29.40;99.90
3756;DHT22;1893;52.526;13.360;2022-08-16T14:37:34;29.50;99.90
3756;DHT22;1893;52.526;13.360;2022-08-16T14:39:59;29.60;99.90
3756;DHT22;1893;52.526;13.360;2022-08-16T14:42:25;29.50;99.90
3756;DHT22;1893;52.526;13.360;2022-08-16T14:44:51;29.40;99.90
3756;DHT22;1893;52.526;13.360;2022-08-16T14:47:17;29.50;99.90
3756;DHT22;1893;52.526;13.360;2022-08-16T14:49:44;29.60;99.90
3756;DHT22;1893;52.526;13.360;2022-08-16T14:52:13;30.10;99.90
3756;DHT22;1893;52.526;13.360;2022-08-16T14:54:41;30.30;99.90
3756;DHT22;1893;52.526;13.360;2022-08-16T14:57:07;30.10;99.90
3756;DHT22;1893;52.526;13.360;2022-08-16T14:59:33;29.70;99.90
3756;DHT22;1893;52.526;13.360;2022-08-16T15:02:00;29.50;99.90
3756;DHT22;1893;52.526;13.360;2022-08-16T15:04:28;29.40;99.90
3756;DHT22;1893;52.526;13.360;2022-08-16T15:06:54;29.70;99.90
3756;DHT22;1893;52.526;13.360;2022-08-16T15:09:19;29.70;99.90
3756;DHT22;1893;52.526;13.360;2022-08-16T15:11:45;29.90;99.90
3756;DHT22;1893;52.526;13.360;2022-08-16T15:14:11;30.00;99.90
3756;DHT22;1893;52.526;13.360;2022-08-16T15:16:36;30.10;99.90
3756;DHT22;1893;52.526;13.360;2022-08-16T15:19:02;30.00;99.90
3756;DHT22;1893;52.526;13.360;2022-08-16T15:21:28;30.10;99.90
3756;DHT22;1893;52.526;13.360;2022-08-16T15:23:55;30.20;99.90
3756;DHT22;1893;52.526;13.360;2022-08-16T15:26:21;30.30;99.90
3756;DHT22;1893;52.526;13.360;2022-08-16T15:28:47;30.50;99.90
3756;DHT22;1893;52.526;13.360;2022-08-16T15:31:13;30.40;99.90
3756;DHT22;1893;52.526;13.360;2022-08-16T15:33:47;30.50;99.90
3756;DHT22;1893;52.526;13.360;2022-08-16T15:36:15;30.80;99.90
3756;DHT22;1893;52.526;13.360;2022-08-16T15:38:47;30.70;99.90
3756;DHT22;1893;52.526;13.360;2022-08-16T15:44:06;30.50;99.90
3756;DHT22;1893;52.526;13.360;2022-08-16T15:46:32;30.30;99.90
3756;DHT22;1893;52.526;13.360;2022-08-16T15:48:58;30.10;99.90
3756;DHT22;1893;52.526;13.360;2022-08-16T15:51:24;29.90;99.90
3756;DHT22;1893;52.526;13.360;2022-08-16T15:53:50;29.90;99.90
3756;DHT22;1893;52.526;13.360;2022-08-16T15:56:17;29.80;99.90